KUSE

Details ICAO KUSE
Name FULTON CO
Region United States
Timezone America/New_York (UTC-5.0)
Plans Departing 2
Arriving 0
Stats Elevation 779 ft / 237 m (AMSL)
Location 41.610065° -84.127881°
Runways 2
Magnetic Variation 6.594° W
Sunrise 2017-12-11 12:54:51 UTC / 2017-12-11 07:54:51 Local
Sunset 2017-12-11 22:07:48 UTC / 2017-12-11 17:07:48 Local
Advertisement - Login to hide

Runways

ID Width Length Bearing (true) Bearing (mag) Surface Threshold Offset Overrun Length
09 75 ft / 23 m 3,872 ft / 1,180 m 89.06° 95.65° Asphalt 0 ft / 0 m 0 ft / 0 m
18 75 ft / 23 m 2,119 ft / 646 m 179.91° 186.50° Dirt 0 ft / 0 m 0 ft / 0 m
27 75 ft / 23 m 3,872 ft / 1,180 m 269.07° 275.66° Asphalt 0 ft / 0 m 0 ft / 0 m
36 75 ft / 23 m 2,119 ft / 646 m 359.91° 6.50° Dirt 0 ft / 0 m 0 ft / 0 m

Map

Weather


0- 5 10 15 20 25 30 35+ Temperature / ° C

Clouds and Precipitation
Forecast for 2017-12-11 18:00 UTC. Updated 6 minutes ago

Ground ~20,000 ft ~40,000 ft Winds

METAR

KUSE 111720Z AUTO 19007KT 10SM OVC060 M01/M02 A2992 RMK AO2

TAF

Not found

Frequencies

Unicom 123.00 MHz CTAF/UNICOM
Approach 134.35 MHz TOLEDO APP/DEP
Warning: Do not use this data for real-world aviation or navigation. No guarantee of current accuracy is given.